createdAt,value
2022-10-06T00:01:08.031Z,2.03
2022-10-06T00:03:35.204Z,1.83
2022-10-06T00:06:03.084Z,2.30
2022-10-06T00:08:33.990Z,2.00
2022-10-06T00:11:01.156Z,2.20
2022-10-06T00:13:29.319Z,2.20
2022-10-06T00:15:56.425Z,2.10
2022-10-06T00:18:23.582Z,1.83
2022-10-06T00:20:57.601Z,1.80
2022-10-06T00:23:24.645Z,1.80
2022-10-06T00:25:51.758Z,1.70
2022-10-06T00:28:19.128Z,1.83
2022-10-06T00:30:46.839Z,1.97
2022-10-06T00:33:16.072Z,2.20
2022-10-06T00:35:46.716Z,2.10
2022-10-06T00:38:14.923Z,1.93
2022-10-06T00:40:45.958Z,1.80
2022-10-06T00:43:31.855Z,2.00
2022-10-06T00:45:58.957Z,1.90
2022-10-06T00:48:27.580Z,1.97
2022-10-06T00:50:56.539Z,1.83
2022-10-06T00:53:24.346Z,1.80
2022-10-06T00:55:53.271Z,1.43
2022-10-06T00:58:21.009Z,1.90
2022-10-06T01:00:49.975Z,1.70
2022-10-06T01:03:24.848Z,1.87
2022-10-06T01:05:52.682Z,1.63
2022-10-06T01:08:19.730Z,1.53
2022-10-06T01:10:46.734Z,1.93
2022-10-06T01:13:14.912Z,2.00
2022-10-06T01:15:44.159Z,1.90
2022-10-06T01:18:13.727Z,1.77
2022-10-06T01:20:45.174Z,2.07
2022-10-06T01:23:12.810Z,1.93
2022-10-06T01:25:40.053Z,1.80
2022-10-06T01:28:08.555Z,1.77
2022-10-06T01:30:42.169Z,1.80
2022-10-06T01:33:09.370Z,2.10
2022-10-06T01:35:36.471Z,1.73
2022-10-06T01:38:03.486Z,1.70
2022-10-06T01:40:30.543Z,2.20
2022-10-06T01:42:57.581Z,1.93
2022-10-06T01:45:24.605Z,2.07
2022-10-06T01:47:52.810Z,1.97
2022-10-06T01:50:19.923Z,1.80
2022-10-06T01:52:46.985Z,1.80
2022-10-06T01:55:14.552Z,1.90
2022-10-06T01:57:42.374Z,2.20
2022-10-06T02:00:10.551Z,2.00
2022-10-06T02:02:37.920Z,1.67
2022-10-06T02:05:05.784Z,1.93
2022-10-06T02:07:32.835Z,2.17
2022-10-06T02:09:59.857Z,2.00
2022-10-06T02:12:26.928Z,1.93
2022-10-06T02:14:53.960Z,1.93
2022-10-06T02:17:22.787Z,1.80
2022-10-06T02:19:49.840Z,1.80
2022-10-06T02:22:17.303Z,2.00
2022-10-06T02:24:44.375Z,1.77
2022-10-06T02:27:11.495Z,2.20
2022-10-06T02:29:38.563Z,1.90
2022-10-06T02:32:05.694Z,2.00
2022-10-06T02:34:33.055Z,1.90
2022-10-06T02:37:00.124Z,1.80
2022-10-06T02:39:27.183Z,1.90
2022-10-06T02:41:54.308Z,1.73
2022-10-06T02:44:21.419Z,1.97
2022-10-06T02:46:49.253Z,2.07
2022-10-06T02:49:16.292Z,1.87
2022-10-06T02:51:43.353Z,2.10
2022-10-06T02:54:10.494Z,1.80
2022-10-06T02:56:37.933Z,1.87
2022-10-06T02:59:04.972Z,2.00
2022-10-06T03:01:32.130Z,2.23
2022-10-06T03:03:59.207Z,1.90
2022-10-06T03:06:27.409Z,1.93
2022-10-06T03:08:57.740Z,2.00
2022-10-06T03:11:26.505Z,1.90
2022-10-06T03:13:53.750Z,2.27
2022-10-06T03:16:22.533Z,2.07
2022-10-06T03:18:50.363Z,2.00
2022-10-06T03:21:18.175Z,2.10
2022-10-06T03:23:45.575Z,2.30
2022-10-06T03:26:13.291Z,2.17
2022-10-06T03:28:40.415Z,2.10
2022-10-06T03:31:07.989Z,1.93
2022-10-06T03:33:35.052Z,2.33
2022-10-06T03:36:03.472Z,1.93
2022-10-06T03:38:31.849Z,1.90
2022-10-06T03:41:06.335Z,1.80
2022-10-06T03:43:33.774Z,2.13
2022-10-06T03:46:01.340Z,2.27
2022-10-06T03:48:29.459Z,2.00
2022-10-06T03:51:00.636Z,2.23
2022-10-06T03:53:30.553Z,2.13
2022-10-06T03:56:00.698Z,2.40
2022-10-06T03:58:31.639Z,2.00
2022-10-06T04:00:59.952Z,2.20
2022-10-06T04:03:27.107Z,2.00
2022-10-06T04:05:54.875Z,1.90
2022-10-06T04:08:21.944Z,2.13
2022-10-06T04:10:49.593Z,2.00
2022-10-06T04:13:17.931Z,2.20
2022-10-06T04:15:45.485Z,2.10
2022-10-06T04:18:12.528Z,2.50
2022-10-06T04:20:39.852Z,2.00
2022-10-06T04:23:07.435Z,2.20
2022-10-06T04:25:34.974Z,2.30
2022-10-06T04:28:02.099Z,2.33
2022-10-06T04:30:29.211Z,1.90
2022-10-06T04:32:56.347Z,2.20
2022-10-06T04:35:23.392Z,1.93
2022-10-06T04:37:51.860Z,2.00
2022-10-06T04:40:18.892Z,1.97
2022-10-06T04:42:46.112Z,1.83
2022-10-06T04:45:13.173Z,1.97
2022-10-06T04:47:40.254Z,2.30
2022-10-06T04:50:07.449Z,2.17
2022-10-06T04:52:34.463Z,2.00
2022-10-06T04:55:01.488Z,2.07
2022-10-06T04:57:28.515Z,1.90
2022-10-06T05:00:15.205Z,2.20
2022-10-06T05:02:42.419Z,2.20
2022-10-06T05:05:09.587Z,1.93
2022-10-06T05:07:36.625Z,2.20
2022-10-06T05:10:03.717Z,2.53
2022-10-06T05:12:31.188Z,2.50
2022-10-06T05:14:58.480Z,2.60
2022-10-06T05:17:25.490Z,2.23
2022-10-06T05:19:52.524Z,1.97
2022-10-06T05:22:19.617Z,1.93
2022-10-06T05:24:46.829Z,2.50
2022-10-06T05:27:13.906Z,1.90
2022-10-06T05:29:40.975Z,2.10
2022-10-06T05:32:08.106Z,2.10
2022-10-06T05:34:35.191Z,2.07
2022-10-06T05:37:02.238Z,2.40
2022-10-06T05:39:29.290Z,1.80
2022-10-06T05:41:56.323Z,1.90
2022-10-06T05:44:23.378Z,1.77
2022-10-06T05:46:50.402Z,1.80
2022-10-06T05:49:17.443Z,2.00
2022-10-06T05:51:44.520Z,1.60
2022-10-06T05:54:12.747Z,1.97
2022-10-06T05:56:39.825Z,1.83
2022-10-06T05:59:07.511Z,1.80
2022-10-06T06:01:36.249Z,1.80
2022-10-06T06:04:07.767Z,1.93
2022-10-06T06:06:36.214Z,1.57
2022-10-06T06:09:13.783Z,1.90
2022-10-06T06:11:42.004Z,1.90
2022-10-06T06:14:10.604Z,1.80
2022-10-06T06:16:38.900Z,1.80
2022-10-06T06:19:06.844Z,2.00
2022-10-06T06:21:34.046Z,1.73
2022-10-06T06:24:01.082Z,2.03
2022-10-06T06:26:32.723Z,1.43
2022-10-06T06:29:02.636Z,0.73
2022-10-06T06:31:31.298Z,0.40
2022-10-06T06:33:59.924Z,0.40
2022-10-06T06:36:28.504Z,0.43
2022-10-06T06:38:56.614Z,0.40
2022-10-06T06:41:24.704Z,0.30
2022-10-06T06:43:52.894Z,0.30
2022-10-06T06:46:21.115Z,0.20
2022-10-06T06:48:48.229Z,0.30
2022-10-06T06:51:15.280Z,0.30
2022-10-06T06:53:42.658Z,0.40
2022-10-06T06:56:10.152Z,0.30
2022-10-06T06:58:37.250Z,0.20
2022-10-06T07:01:05.169Z,0.43
2022-10-06T07:03:56.179Z,0.50
2022-10-06T07:06:19.259Z,0.77
2022-10-06T07:08:47.612Z,2.00
2022-10-06T07:11:14.689Z,1.00
2022-10-06T07:13:42.465Z,0.60
2022-10-06T07:16:31.910Z,0.80
2022-10-06T07:19:21.305Z,0.43
2022-10-06T07:22:15.484Z,0.83
2022-10-06T07:25:01.669Z,0.60
2022-10-06T07:27:28.962Z,0.50
2022-10-06T07:29:56.682Z,0.53
2022-10-06T07:32:30.732Z,0.60
2022-10-06T07:34:58.686Z,0.50
2022-10-06T07:37:26.258Z,0.40
2022-10-06T07:39:53.277Z,0.57
2022-10-06T07:42:20.373Z,0.40
2022-10-06T07:45:07.655Z,0.40
2022-10-06T07:47:35.206Z,0.60
2022-10-06T07:50:02.251Z,0.50
2022-10-06T07:52:29.312Z,0.57
2022-10-06T07:54:58.275Z,0.63
2022-10-06T07:57:35.120Z,0.57
2022-10-06T08:00:05.257Z,0.40
2022-10-06T08:02:35.526Z,0.70
2022-10-06T08:05:03.346Z,0.57
2022-10-06T08:07:30.415Z,0.80
2022-10-06T08:09:57.469Z,0.77
2022-10-06T08:12:33.492Z,0.60
2022-10-06T08:15:06.960Z,0.50
2022-10-06T08:17:36.715Z,0.63
2022-10-06T08:20:05.290Z,0.50
2022-10-06T08:22:32.494Z,0.60
2022-10-06T08:25:07.245Z,0.63
2022-10-06T08:27:35.276Z,0.50
2022-10-06T08:30:02.817Z,0.50
2022-10-06T08:32:29.891Z,0.60
2022-10-06T08:34:57.580Z,0.63
2022-10-06T08:37:26.789Z,0.50
2022-10-06T08:39:54.485Z,0.90
2022-10-06T08:42:26.299Z,0.40
2022-10-06T08:44:58.818Z,0.70
2022-10-06T08:47:27.888Z,0.83
2022-10-06T08:49:55.832Z,0.40
2022-10-06T08:52:23.233Z,0.63
2022-10-06T08:55:09.136Z,0.50
2022-10-06T08:57:36.134Z,0.53
2022-10-06T09:00:03.909Z,0.60
2022-10-06T09:02:32.413Z,0.60
2022-10-06T09:05:01.624Z,0.70
2022-10-06T09:07:32.003Z,0.43
2022-10-06T09:10:17.843Z,0.57
2022-10-06T09:13:04.791Z,0.50
2022-10-06T09:15:41.067Z,0.57
2022-10-06T09:18:11.332Z,0.60
2022-10-06T09:20:51.194Z,0.80
2022-10-06T09:23:38.899Z,0.70
2022-10-06T09:26:06.898Z,0.63
2022-10-06T09:28:34.016Z,0.63
2022-10-06T09:31:04.412Z,0.90
2022-10-06T09:33:38.380Z,0.50
2022-10-06T09:36:09.306Z,0.80
2022-10-06T09:38:53.590Z,0.80
2022-10-06T09:41:23.343Z,0.57
2022-10-06T09:44:01.950Z,0.77
2022-10-06T09:46:31.445Z,0.60
2022-10-06T09:49:13.943Z,0.60
2022-10-06T09:51:40.977Z,0.80
2022-10-06T09:54:14.775Z,0.60
2022-10-06T09:56:47.160Z,0.60
2022-10-06T09:59:25.384Z,0.60
2022-10-06T10:01:53.620Z,0.70
2022-10-06T10:04:30.807Z,0.90
2022-10-06T10:07:24.187Z,0.70
2022-10-06T10:09:52.081Z,0.80
2022-10-06T10:12:31.019Z,0.70
2022-10-06T10:14:59.346Z,0.80
2022-10-06T10:17:35.531Z,0.70
2022-10-06T10:20:03.270Z,1.00
2022-10-06T10:22:40.791Z,1.10
2022-10-06T10:25:10.954Z,0.90
2022-10-06T10:27:45.690Z,1.13
2022-10-06T10:30:14.711Z,1.10
2022-10-06T10:32:50.440Z,0.90
2022-10-06T10:35:28.355Z,0.87
2022-10-06T10:37:55.342Z,1.03
2022-10-06T10:40:34.479Z,1.00
2022-10-06T10:43:01.489Z,1.00
2022-10-06T10:45:35.948Z,1.00
2022-10-06T10:48:07.653Z,1.00
2022-10-06T10:50:43.651Z,1.20
2022-10-06T10:53:19.603Z,1.00
2022-10-06T10:55:48.275Z,1.03
2022-10-06T10:58:19.576Z,1.27
2022-10-06T11:00:48.826Z,0.80
2022-10-06T11:03:16.026Z,0.80
2022-10-06T11:05:43.040Z,0.80
2022-10-06T11:08:11.787Z,0.87
2022-10-06T11:10:42.940Z,1.00
2022-10-06T11:13:18.994Z,0.93
2022-10-06T11:15:51.271Z,1.27
2022-10-06T11:18:27.218Z,0.70
2022-10-06T11:21:14.534Z,0.83
2022-10-06T11:23:41.623Z,1.37
2022-10-06T11:26:14.669Z,0.87
2022-10-06T11:28:50.845Z,0.90
2022-10-06T11:31:27.077Z,1.30
2022-10-06T11:33:55.335Z,0.90
2022-10-06T11:36:31.693Z,0.73
2022-10-06T11:39:21.003Z,0.70
2022-10-06T11:41:53.919Z,0.87
2022-10-06T11:44:44.476Z,0.90
2022-10-06T11:47:35.212Z,1.00
2022-10-06T11:50:02.832Z,0.80
2022-10-06T11:52:29.859Z,0.80
2022-10-06T11:55:06.751Z,0.70
2022-10-06T11:57:34.270Z,0.80
2022-10-06T12:00:16.801Z,0.80
2022-10-06T12:02:45.244Z,0.90
2022-10-06T12:05:54.198Z,0.80
2022-10-06T12:08:03.573Z,0.80
2022-10-06T12:10:32.138Z,1.13
2022-10-06T12:13:53.271Z,1.10
2022-10-06T12:19:19.219Z,0.50
2022-10-06T12:22:06.494Z,0.70
2022-10-06T12:24:41.169Z,0.70
2022-10-06T12:27:08.215Z,0.73
2022-10-06T12:29:46.009Z,0.60
2022-10-06T12:32:31.839Z,0.80
2022-10-06T12:34:59.235Z,0.60
2022-10-06T12:37:29.358Z,0.90
2022-10-06T12:40:14.901Z,0.70
2022-10-06T12:42:42.396Z,0.60
2022-10-06T12:45:16.064Z,0.90
2022-10-06T12:47:44.154Z,1.00
2022-10-06T12:50:11.194Z,0.83
2022-10-06T12:52:53.554Z,0.70
2022-10-06T12:55:39.618Z,0.80
2022-10-06T12:58:07.902Z,0.53
2022-10-06T13:00:42.362Z,0.70
2022-10-06T13:03:16.795Z,0.60
2022-10-06T13:05:49.933Z,0.87
2022-10-06T13:08:27.437Z,0.73
2022-10-06T13:11:13.382Z,0.87
2022-10-06T13:13:46.838Z,0.90
2022-10-06T13:16:15.210Z,0.90
2022-10-06T13:18:42.429Z,0.80
2022-10-06T13:21:14.408Z,0.77
2022-10-06T13:23:41.454Z,0.77
2022-10-06T13:26:08.539Z,0.80
2022-10-06T13:28:44.452Z,1.20
2022-10-06T13:31:33.478Z,0.83
2022-10-06T13:34:07.712Z,0.70
2022-10-06T13:36:37.087Z,0.80
2022-10-06T13:39:05.294Z,1.10
2022-10-06T13:41:37.947Z,1.17
2022-10-06T13:44:04.950Z,1.33
2022-10-06T13:46:33.278Z,0.87
2022-10-06T13:49:03.385Z,0.70
2022-10-06T13:51:31.687Z,0.93
2022-10-06T13:54:01.000Z,0.70
2022-10-06T13:56:33.598Z,0.97
2022-10-06T13:59:15.871Z,0.80
2022-10-06T14:01:43.152Z,1.00
2022-10-06T14:04:14.586Z,1.03
2022-10-06T14:06:52.414Z,0.70
2022-10-06T14:09:22.593Z,1.00
2022-10-06T14:11:50.074Z,0.87
2022-10-06T14:14:18.010Z,1.03
2022-10-06T14:16:49.032Z,0.80
2022-10-06T14:19:31.476Z,1.00
2022-10-06T14:21:58.513Z,0.80
2022-10-06T14:24:28.195Z,0.70
2022-10-06T14:26:57.135Z,1.10
2022-10-06T14:29:25.755Z,0.97
2022-10-06T14:31:53.025Z,0.67
2022-10-06T14:34:21.020Z,1.00
2022-10-06T14:36:51.365Z,0.80
2022-10-06T14:39:18.773Z,0.70
2022-10-06T14:41:45.909Z,0.80
2022-10-06T14:44:14.905Z,0.97
2022-10-06T14:46:42.986Z,0.93
2022-10-06T14:49:11.295Z,0.90
2022-10-06T14:51:39.181Z,0.70
2022-10-06T14:54:07.655Z,1.00
2022-10-06T14:56:37.312Z,1.00
2022-10-06T14:59:06.144Z,1.00
2022-10-06T15:01:34.154Z,0.80
2022-10-06T15:04:03.085Z,0.90
2022-10-06T15:06:48.885Z,0.63
2022-10-06T15:09:16.156Z,0.93
2022-10-06T15:11:43.202Z,0.90
2022-10-06T15:14:10.295Z,1.03
2022-10-06T15:16:40.694Z,1.00
2022-10-06T15:19:07.806Z,1.10
2022-10-06T15:21:35.081Z,1.10
2022-10-06T15:24:05.113Z,0.77
2022-10-06T15:26:51.174Z,0.90
2022-10-06T15:29:18.731Z,1.13
2022-10-06T15:31:52.539Z,1.20
2022-10-06T15:34:25.204Z,0.90
2022-10-06T15:36:52.879Z,1.10
2022-10-06T15:39:23.928Z,0.93
2022-10-06T15:41:51.391Z,1.03
2022-10-06T15:44:22.148Z,0.90
2022-10-06T15:46:50.646Z,1.10
2022-10-06T15:49:19.900Z,1.07
2022-10-06T15:51:48.757Z,1.00
2022-10-06T15:54:20.169Z,0.90
2022-10-06T15:56:51.449Z,1.17
2022-10-06T15:59:23.991Z,1.00
2022-10-06T16:01:52.356Z,0.80
2022-10-06T16:04:33.460Z,1.00
2022-10-06T16:07:00.996Z,1.13
2022-10-06T16:09:29.224Z,1.27
2022-10-06T16:11:57.177Z,1.50
2022-10-06T16:14:24.348Z,1.50
2022-10-06T16:16:51.566Z,1.60
2022-10-06T16:19:19.344Z,1.50
2022-10-06T16:21:49.730Z,1.87
2022-10-06T16:24:17.694Z,2.90
2022-10-06T16:26:46.859Z,3.20
2022-10-06T16:29:14.507Z,4.47
2022-10-06T16:31:41.744Z,2.80
2022-10-06T16:34:09.215Z,2.27
2022-10-06T16:36:39.368Z,1.97
2022-10-06T16:39:07.282Z,2.40
2022-10-06T16:41:34.604Z,2.50
2022-10-06T16:44:01.665Z,1.80
2022-10-06T16:46:30.032Z,1.70
2022-10-06T16:48:57.959Z,2.17
2022-10-06T16:51:32.695Z,2.33
2022-10-06T16:54:01.197Z,2.40
2022-10-06T16:56:29.599Z,2.33
2022-10-06T16:58:58.052Z,2.33
2022-10-06T17:01:26.292Z,1.77
2022-10-06T17:03:59.725Z,1.93
2022-10-06T17:06:26.936Z,2.27
2022-10-06T17:08:54.244Z,2.03
2022-10-06T17:11:23.636Z,2.37
2022-10-06T17:13:52.188Z,2.27
2022-10-06T17:16:21.014Z,2.73
2022-10-06T17:18:52.052Z,2.20
2022-10-06T17:21:43.326Z,2.30
2022-10-06T17:24:06.455Z,1.90
2022-10-06T17:26:34.874Z,1.77
2022-10-06T17:29:03.053Z,2.00
2022-10-06T17:31:37.178Z,1.80
2022-10-06T17:34:12.334Z,1.60
2022-10-06T17:36:44.600Z,1.63
2022-10-06T17:39:13.675Z,1.87
2022-10-06T17:41:41.951Z,1.80
2022-10-06T17:44:13.545Z,2.13
2022-10-06T17:46:48.204Z,2.00
2022-10-06T17:49:16.562Z,2.40
2022-10-06T17:51:47.920Z,2.37
2022-10-06T17:54:19.895Z,2.60
2022-10-06T17:56:47.975Z,3.50
2022-10-06T17:59:16.333Z,6.47
2022-10-06T18:01:45.208Z,3.30
2022-10-06T18:04:15.487Z,2.83
2022-10-06T18:06:43.189Z,2.60
2022-10-06T18:09:10.556Z,2.10
2022-10-06T18:11:48.046Z,2.10
2022-10-06T18:14:16.541Z,3.17
2022-10-06T18:16:45.234Z,2.60
2022-10-06T18:19:13.774Z,2.07
2022-10-06T18:21:41.728Z,2.30
2022-10-06T18:24:11.266Z,2.57
2022-10-06T18:26:41.755Z,2.70
2022-10-06T18:29:12.113Z,3.13
2022-10-06T18:31:39.412Z,2.77
2022-10-06T18:36:53.912Z,2.57
2022-10-06T18:39:20.962Z,2.63
2022-10-06T18:41:50.954Z,2.00
2022-10-06T18:44:37.949Z,2.10
2022-10-06T18:47:23.701Z,2.17
2022-10-06T18:49:52.828Z,2.70
2022-10-06T18:52:20.863Z,2.20
2022-10-06T18:54:48.962Z,2.17
2022-10-06T18:57:16.116Z,2.30
2022-10-06T18:59:43.348Z,3.03
2022-10-06T19:02:11.647Z,2.57
2022-10-06T19:04:42.639Z,2.90
2022-10-06T19:07:09.739Z,2.73
2022-10-06T19:09:36.843Z,3.17
2022-10-06T19:12:03.923Z,2.83
2022-10-06T19:14:32.420Z,2.97
2022-10-06T19:17:04.051Z,2.90
2022-10-06T19:19:32.134Z,3.00
2022-10-06T19:22:00.196Z,3.10
2022-10-06T19:24:28.466Z,3.20
2022-10-06T19:26:56.371Z,3.40
2022-10-06T19:29:26.607Z,3.13
2022-10-06T19:31:55.660Z,3.20
2022-10-06T19:34:23.067Z,3.20
2022-10-06T19:36:52.811Z,3.30
2022-10-06T19:39:24.734Z,3.27
2022-10-06T19:42:11.028Z,3.47
2022-10-06T19:44:42.800Z,3.43
2022-10-06T19:47:11.666Z,2.93
2022-10-06T19:49:38.803Z,2.87
2022-10-06T19:52:06.393Z,2.80
2022-10-06T19:54:33.419Z,2.87
2022-10-06T19:57:05.192Z,3.33
2022-10-06T19:59:32.933Z,3.30
2022-10-06T20:02:00.846Z,3.20
2022-10-06T20:04:27.930Z,3.13
2022-10-06T20:06:55.074Z,3.30
2022-10-06T20:09:23.452Z,3.60
2022-10-06T20:11:51.257Z,3.30
2022-10-06T20:14:20.961Z,3.47
2022-10-06T20:16:49.324Z,3.53
2022-10-06T20:19:16.919Z,3.37
2022-10-06T20:21:44.362Z,3.60
2022-10-06T20:24:12.848Z,3.73
2022-10-06T20:26:41.169Z,3.30
2022-10-06T20:29:09.364Z,3.30
2022-10-06T20:31:40.586Z,3.30
2022-10-06T20:34:08.912Z,3.33
2022-10-06T20:36:36.320Z,3.90
2022-10-06T20:39:22.958Z,3.63
2022-10-06T20:41:50.000Z,3.83
2022-10-06T20:44:17.036Z,3.57
2022-10-06T20:46:44.704Z,3.43
2022-10-06T20:49:15.003Z,3.37
2022-10-06T20:51:46.576Z,3.27
2022-10-06T20:54:16.193Z,3.30
2022-10-06T20:56:43.528Z,3.80
2022-10-06T20:59:13.682Z,3.37
2022-10-06T21:01:40.932Z,3.13
2022-10-06T21:04:09.091Z,3.83
2022-10-06T21:06:40.123Z,3.43
2022-10-06T21:09:07.899Z,3.50
2022-10-06T21:11:35.159Z,3.27
2022-10-06T21:14:02.490Z,2.90
2022-10-06T21:16:32.079Z,3.13
2022-10-06T21:18:59.942Z,2.80
2022-10-06T21:21:27.085Z,3.10
2022-10-06T21:23:54.182Z,2.90
2022-10-06T21:26:22.281Z,2.97
2022-10-06T21:28:52.387Z,2.90
2022-10-06T21:31:21.386Z,2.70
2022-10-06T21:33:50.299Z,2.90
2022-10-06T21:36:27.252Z,2.87
2022-10-06T21:38:55.401Z,3.00
2022-10-06T21:41:23.750Z,2.73
2022-10-06T21:43:57.655Z,2.67
2022-10-06T21:46:28.788Z,2.67
2022-10-06T21:48:56.902Z,3.20
2022-10-06T21:51:24.730Z,2.83
2022-10-06T21:53:52.560Z,3.00
2022-10-06T21:56:21.227Z,2.93
2022-10-06T21:58:51.405Z,2.90
2022-10-06T22:01:19.434Z,3.00
2022-10-06T22:03:46.574Z,3.27
2022-10-06T22:06:18.351Z,3.30
2022-10-06T22:08:46.598Z,2.77
2022-10-06T22:11:15.115Z,2.83
2022-10-06T22:13:43.103Z,2.87
2022-10-06T22:16:11.223Z,2.60
2022-10-06T22:18:39.125Z,3.00
2022-10-06T22:21:13.596Z,2.73
2022-10-06T22:23:41.604Z,2.83
2022-10-06T22:26:09.292Z,3.00
2022-10-06T22:28:36.564Z,2.60
2022-10-06T22:31:07.805Z,2.80
2022-10-06T22:33:35.289Z,2.57
2022-10-06T22:36:02.777Z,2.70
2022-10-06T22:38:30.880Z,2.60
2022-10-06T22:41:01.539Z,2.87
2022-10-06T22:43:28.954Z,2.70
2022-10-06T22:45:56.416Z,2.87
2022-10-06T22:48:23.872Z,2.77
2022-10-06T22:50:51.329Z,2.97
2022-10-06T22:53:22.548Z,2.70
2022-10-06T22:55:50.095Z,2.60
2022-10-06T22:58:17.917Z,2.53
2022-10-06T23:00:45.510Z,2.30
2022-10-06T23:03:12.742Z,2.47
2022-10-06T23:05:40.312Z,2.53
2022-10-06T23:08:08.003Z,2.63
2022-10-06T23:10:35.896Z,2.37
2022-10-06T23:13:03.299Z,2.53
2022-10-06T23:15:30.378Z,2.70
2022-10-06T23:17:57.441Z,2.43
2022-10-06T23:20:24.501Z,2.30
2022-10-06T23:22:51.620Z,2.40
2022-10-06T23:25:18.731Z,2.40
2022-10-06T23:27:46.237Z,2.50
2022-10-06T23:30:13.992Z,2.63
2022-10-06T23:32:41.127Z,2.40
2022-10-06T23:35:11.639Z,2.60
2022-10-06T23:37:38.766Z,2.67
2022-10-06T23:40:06.596Z,2.90
2022-10-06T23:42:33.695Z,2.73
2022-10-06T23:45:00.769Z,2.40
2022-10-06T23:47:27.832Z,2.37
2022-10-06T23:49:54.891Z,2.17
2022-10-06T23:52:22.004Z,2.20
2022-10-06T23:54:49.538Z,2.60
2022-10-06T23:57:16.641Z,2.37
2022-10-06T23:59:43.692Z,2.33
